createdAt,value
2022-09-11T00:01:12.545Z,100.00
2022-09-11T00:03:39.268Z,100.00
2022-09-11T00:06:08.482Z,100.00
2022-09-11T00:08:35.278Z,100.00
2022-09-11T00:11:08.454Z,100.00
2022-09-11T00:13:36.803Z,100.00
2022-09-11T00:16:05.857Z,100.00
2022-09-11T00:18:36.333Z,100.00
2022-09-11T00:21:05.520Z,100.00
2022-09-11T00:23:32.318Z,100.00
2022-09-11T00:26:02.868Z,100.00
2022-09-11T00:28:29.723Z,100.00
2022-09-11T00:31:12.611Z,100.00
2022-09-11T00:33:39.859Z,100.00
2022-09-11T00:36:12.214Z,100.00
2022-09-11T00:38:39.225Z,100.00
2022-09-11T00:41:10.593Z,100.00
2022-09-11T00:44:01.081Z,100.00
2022-09-11T00:46:50.129Z,100.00
2022-09-11T00:49:19.821Z,100.00
2022-09-11T00:51:50.747Z,100.00
2022-09-11T00:54:21.418Z,100.00
2022-09-11T00:56:49.721Z,100.00
2022-09-11T00:59:17.523Z,100.00
2022-09-11T01:01:44.204Z,100.00
2022-09-11T01:04:11.282Z,100.00
2022-09-11T01:06:37.973Z,100.00
2022-09-11T01:09:04.688Z,100.00
2022-09-11T01:12:09.323Z,100.00
2022-09-11T01:15:03.590Z,100.00
2022-09-11T01:17:36.251Z,100.00
2022-09-11T01:20:24.788Z,100.00
2022-09-11T01:23:05.259Z,100.00
2022-09-11T01:25:44.268Z,100.00
2022-09-11T01:28:15.519Z,100.00
2022-09-11T01:30:47.622Z,100.00
2022-09-11T01:33:23.498Z,100.00
2022-09-11T01:35:59.704Z,100.00
2022-09-11T01:38:46.812Z,100.00
2022-09-11T01:41:20.007Z,100.00
2022-09-11T01:43:56.938Z,100.00
2022-09-11T01:46:28.083Z,100.00
2022-09-11T01:49:07.838Z,100.00
2022-09-11T01:51:37.336Z,100.00
2022-09-11T01:54:09.308Z,100.00
2022-09-11T01:56:41.730Z,100.00
2022-09-11T01:59:13.123Z,100.00
2022-09-11T02:01:44.111Z,100.00
2022-09-11T02:04:16.897Z,100.00
2022-09-11T02:06:48.906Z,100.00
2022-09-11T02:09:21.208Z,100.00
2022-09-11T02:11:50.197Z,100.00
2022-09-11T02:14:30.645Z,100.00
2022-09-11T02:17:26.167Z,100.00
2022-09-11T02:19:57.209Z,100.00
2022-09-11T02:22:24.726Z,100.00
2022-09-11T02:24:52.263Z,100.00
2022-09-11T02:27:24.155Z,100.00
2022-09-11T02:29:50.917Z,100.00
2022-09-11T02:32:18.885Z,100.00
2022-09-11T02:34:48.548Z,100.00
2022-09-11T02:37:18.252Z,100.00
2022-09-11T02:39:55.843Z,100.00
2022-09-11T02:42:41.442Z,100.00
2022-09-11T02:45:38.812Z,100.00
2022-09-11T02:48:12.411Z,100.00
2022-09-11T02:51:01.578Z,100.00
2022-09-11T02:53:49.165Z,100.00
2022-09-11T02:56:31.699Z,100.00
2022-09-11T02:59:06.791Z,100.00
2022-09-11T03:01:55.322Z,100.00
2022-09-11T03:04:25.768Z,100.00
2022-09-11T03:06:54.574Z,100.00
2022-09-11T03:09:21.370Z,100.00
2022-09-11T03:11:51.894Z,100.00
2022-09-11T03:14:19.767Z,100.00
2022-09-11T03:16:46.849Z,100.00
2022-09-11T03:19:13.849Z,100.00
2022-09-11T03:21:40.534Z,100.00
2022-09-11T03:24:09.945Z,100.00
2022-09-11T03:26:37.830Z,100.00
2022-09-11T03:29:04.720Z,100.00
2022-09-11T03:31:33.753Z,100.00
2022-09-11T03:34:03.506Z,100.00
2022-09-11T03:36:30.249Z,100.00
2022-09-11T03:38:57.063Z,100.00
2022-09-11T03:41:23.777Z,100.00
2022-09-11T03:43:52.028Z,100.00
2022-09-11T03:46:18.886Z,100.00
2022-09-11T03:48:47.066Z,100.00
2022-09-11T03:51:15.199Z,100.00
2022-09-11T03:53:44.213Z,100.00
2022-09-11T03:56:12.145Z,100.00
2022-09-11T03:59:01.530Z,100.00
2022-09-11T04:01:29.282Z,100.00
2022-09-11T04:03:56.524Z,100.00
2022-09-11T04:06:29.482Z,100.00
2022-09-11T04:08:56.709Z,100.00
2022-09-11T04:11:23.659Z,100.00
2022-09-11T04:13:51.373Z,100.00
2022-09-11T04:16:19.836Z,100.00
2022-09-11T04:18:53.458Z,100.00
2022-09-11T04:21:21.389Z,100.00
2022-09-11T04:23:56.424Z,100.00
2022-09-11T04:26:26.578Z,100.00
2022-09-11T04:28:59.571Z,100.00
2022-09-11T04:31:27.705Z,100.00
2022-09-11T04:33:57.671Z,100.00
2022-09-11T04:36:30.046Z,100.00
2022-09-11T04:38:58.758Z,100.00
2022-09-11T04:41:25.628Z,100.00
2022-09-11T04:44:02.447Z,100.00
2022-09-11T04:46:31.908Z,100.00
2022-09-11T04:49:00.346Z,100.00
2022-09-11T04:51:30.269Z,100.00
2022-09-11T04:53:59.364Z,100.00
2022-09-11T04:56:34.263Z,100.00
2022-09-11T04:59:22.480Z,100.00
2022-09-11T05:02:15.310Z,100.00
2022-09-11T05:04:45.756Z,100.00
2022-09-11T05:07:14.464Z,100.00
2022-09-11T05:09:44.145Z,100.00
2022-09-11T05:12:11.124Z,100.00
2022-09-11T05:14:38.012Z,100.00
2022-09-11T05:17:05.545Z,100.00
2022-09-11T05:19:36.196Z,100.00
2022-09-11T05:22:04.406Z,100.00
2022-09-11T05:24:32.572Z,100.00
2022-09-11T05:26:59.267Z,100.00
2022-09-11T05:29:32.640Z,100.00
2022-09-11T05:32:08.533Z,100.00
2022-09-11T05:34:35.266Z,100.00
2022-09-11T05:37:02.687Z,100.00
2022-09-11T05:39:33.675Z,100.00
2022-09-11T05:42:04.043Z,100.00
2022-09-11T05:44:33.558Z,100.00
2022-09-11T05:47:00.575Z,100.00
2022-09-11T05:49:28.531Z,100.00
2022-09-11T05:51:55.199Z,100.00
2022-09-11T05:54:23.872Z,100.00
2022-09-11T05:56:53.090Z,100.00
2022-09-11T05:59:23.605Z,100.00
2022-09-11T06:01:51.275Z,100.00
2022-09-11T06:04:28.109Z,100.00
2022-09-11T06:06:57.203Z,100.00
2022-09-11T06:09:24.054Z,100.00
2022-09-11T06:11:53.105Z,100.00
2022-09-11T06:14:19.762Z,100.00
2022-09-11T06:16:47.908Z,100.00
2022-09-11T06:19:16.840Z,100.00
2022-09-11T06:21:44.848Z,100.00
2022-09-11T06:24:24.398Z,100.00
2022-09-11T06:26:51.343Z,100.00
2022-09-11T06:29:19.528Z,100.00
2022-09-11T06:31:51.396Z,100.00
2022-09-11T06:34:21.562Z,100.00
2022-09-11T06:36:51.842Z,100.00
2022-09-11T06:39:23.231Z,100.00
2022-09-11T06:41:51.308Z,100.00
2022-09-11T06:44:20.815Z,100.00
2022-09-11T06:46:47.863Z,100.00
2022-09-11T06:49:14.652Z,100.00
2022-09-11T06:52:07.443Z,100.00
2022-09-11T06:54:34.274Z,100.00
2022-09-11T06:57:03.896Z,100.00
2022-09-11T06:59:31.331Z,100.00
2022-09-11T07:01:58.134Z,100.00
2022-09-11T07:04:25.759Z,100.00
2022-09-11T07:06:53.825Z,100.00
2022-09-11T07:09:23.408Z,100.00
2022-09-11T07:11:54.291Z,100.00
2022-09-11T07:14:21.665Z,100.00
2022-09-11T07:16:55.230Z,100.00
2022-09-11T07:19:24.945Z,100.00
2022-09-11T07:21:52.030Z,100.00
2022-09-11T07:24:19.922Z,100.00
2022-09-11T07:26:46.775Z,100.00
2022-09-11T07:29:22.393Z,100.00
2022-09-11T07:31:50.283Z,100.00
2022-09-11T07:34:16.918Z,100.00
2022-09-11T07:36:44.678Z,100.00
2022-09-11T07:39:12.405Z,100.00
2022-09-11T07:41:59.524Z,100.00
2022-09-11T07:44:29.386Z,100.00
2022-09-11T07:46:57.335Z,100.00
2022-09-11T07:49:24.511Z,100.00
2022-09-11T07:51:52.454Z,100.00
2022-09-11T07:54:29.122Z,100.00
2022-09-11T07:56:56.281Z,100.00
2022-09-11T07:59:22.954Z,100.00
2022-09-11T08:01:51.354Z,100.00
2022-09-11T08:04:17.998Z,100.00
2022-09-11T08:06:45.056Z,100.00
2022-09-11T08:09:20.365Z,100.00
2022-09-11T08:11:55.712Z,100.00
2022-09-11T08:14:24.756Z,100.00
2022-09-11T08:16:54.260Z,100.00
2022-09-11T08:19:23.614Z,100.00
2022-09-11T08:21:54.690Z,100.00
2022-09-11T08:24:21.581Z,100.00
2022-09-11T08:26:51.249Z,100.00
2022-09-11T08:29:19.256Z,100.00
2022-09-11T08:31:47.232Z,100.00
2022-09-11T08:34:15.460Z,100.00
2022-09-11T08:36:42.226Z,100.00
2022-09-11T08:39:09.932Z,100.00
2022-09-11T08:41:49.132Z,100.00
2022-09-11T08:44:49.412Z,100.00
2022-09-11T08:47:28.467Z,100.00
2022-09-11T08:50:07.301Z,100.00
2022-09-11T08:52:36.796Z,100.00
2022-09-11T08:55:13.471Z,100.00
2022-09-11T08:58:00.634Z,100.00
2022-09-11T09:00:38.385Z,100.00
2022-09-11T09:03:30.316Z,100.00
2022-09-11T09:06:10.278Z,100.00
2022-09-11T09:08:56.265Z,100.00
2022-09-11T09:11:39.159Z,100.00
2022-09-11T09:14:44.225Z,100.00
2022-09-11T09:17:11.800Z,100.00
2022-09-11T09:20:04.210Z,99.52
2022-09-11T09:22:42.372Z,100.00
2022-09-11T09:25:16.688Z,100.00
2022-09-11T09:27:51.325Z,98.89
2022-09-11T09:30:24.526Z,99.61
2022-09-11T09:33:01.260Z,98.92
2022-09-11T09:35:59.784Z,98.27
2022-09-11T09:38:29.401Z,98.86
2022-09-11T09:41:21.199Z,98.54
2022-09-11T09:44:26.186Z,95.32
2022-09-11T09:46:54.168Z,90.67
2022-09-11T09:49:29.454Z,91.19
2022-09-11T09:52:02.220Z,91.70
2022-09-11T09:54:34.061Z,90.44
2022-09-11T09:57:04.483Z,88.28
2022-09-11T09:59:41.067Z,87.14
2022-09-11T10:02:07.918Z,86.73
2022-09-11T10:04:34.706Z,84.91
2022-09-11T10:07:14.080Z,83.58
2022-09-11T10:09:50.202Z,79.99
2022-09-11T10:12:21.782Z,79.56
2022-09-11T10:14:56.377Z,81.46
2022-09-11T10:17:32.470Z,84.46
2022-09-11T10:20:23.638Z,85.70
2022-09-11T10:22:51.967Z,87.03
2022-09-11T10:25:27.211Z,87.71
2022-09-11T10:28:05.905Z,88.28
2022-09-11T10:30:42.540Z,87.53
2022-09-11T10:33:26.886Z,87.41
2022-09-11T10:35:55.300Z,87.29
2022-09-11T10:38:47.276Z,87.75
2022-09-11T10:41:13.990Z,87.72
2022-09-11T10:43:50.377Z,83.49
2022-09-11T10:46:26.189Z,79.93
2022-09-11T10:48:56.057Z,76.95
2022-09-11T10:51:25.048Z,78.37
2022-09-11T10:53:57.565Z,76.87
2022-09-11T10:56:26.793Z,76.30
2022-09-11T10:58:59.941Z,77.11
2022-09-11T11:01:26.620Z,77.60
2022-09-11T11:03:53.398Z,77.19
2022-09-11T11:06:25.857Z,77.42
2022-09-11T11:09:05.059Z,76.68
2022-09-11T11:11:53.295Z,77.44
2022-09-11T11:14:39.381Z,77.68
2022-09-11T11:17:24.190Z,77.20
2022-09-11T11:20:13.780Z,77.54
2022-09-11T11:22:58.374Z,77.56
2022-09-11T11:25:59.416Z,76.12
2022-09-11T11:29:06.093Z,77.04
2022-09-11T11:32:10.251Z,77.48
2022-09-11T11:34:39.882Z,77.10
2022-09-11T11:37:32.583Z,76.49
2022-09-11T11:40:10.493Z,74.03
2022-09-11T11:42:55.380Z,76.36
2022-09-11T11:45:27.810Z,78.19
2022-09-11T11:47:55.661Z,77.16
2022-09-11T11:50:44.879Z,75.83
2022-09-11T11:53:24.894Z,75.97
2022-09-11T11:55:54.506Z,75.57
2022-09-11T11:58:47.357Z,75.47
2022-09-11T12:01:20.972Z,75.15
2022-09-11T12:03:59.635Z,74.25
2022-09-11T12:06:27.157Z,73.98
2022-09-11T12:08:53.957Z,73.90
2022-09-11T12:11:32.018Z,75.27
2022-09-11T12:13:59.545Z,74.21
2022-09-11T12:16:32.811Z,73.67
2022-09-11T12:19:07.605Z,72.93
2022-09-11T12:21:38.064Z,71.76
2022-09-11T12:24:04.641Z,70.33
2022-09-11T12:26:32.146Z,69.21
2022-09-11T12:29:14.602Z,69.63
2022-09-11T12:31:50.348Z,66.96
2022-09-11T12:34:25.828Z,68.03
2022-09-11T12:36:58.373Z,68.32
2022-09-11T12:39:34.656Z,67.62
2022-09-11T12:42:23.346Z,65.91
2022-09-11T12:44:49.959Z,64.87
2022-09-11T12:47:34.926Z,63.03
2022-09-11T12:50:09.993Z,65.06
2022-09-11T12:52:46.853Z,64.85
2022-09-11T12:55:31.867Z,65.61
2022-09-11T12:58:02.655Z,66.49
2022-09-11T13:01:00.742Z,66.81
2022-09-11T13:03:28.691Z,66.51
2022-09-11T13:06:00.136Z,67.10
2022-09-11T13:08:31.714Z,67.96
2022-09-11T13:11:36.684Z,67.42
2022-09-11T13:14:28.442Z,67.21
2022-09-11T13:16:55.647Z,66.64
2022-09-11T13:19:22.850Z,66.83
2022-09-11T13:21:56.685Z,65.73
2022-09-11T13:24:35.544Z,65.75
2022-09-11T13:27:13.330Z,64.61
2022-09-11T13:29:40.989Z,64.38
2022-09-11T13:32:13.669Z,64.52
2022-09-11T13:34:46.180Z,64.95
2022-09-11T13:37:22.645Z,65.48
2022-09-11T13:39:49.368Z,65.68
2022-09-11T13:42:20.972Z,66.23
2022-09-11T13:44:52.188Z,66.10
2022-09-11T13:47:23.427Z,67.08
2022-09-11T13:50:01.016Z,67.39
2022-09-11T13:52:30.564Z,67.46
2022-09-11T13:55:00.578Z,66.35
2022-09-11T13:57:29.536Z,66.01
2022-09-11T13:59:57.475Z,66.12
2022-09-11T14:02:48.666Z,66.64
2022-09-11T14:05:27.295Z,68.00
2022-09-11T14:08:00.797Z,67.96
2022-09-11T14:10:36.652Z,68.82
2022-09-11T14:13:25.263Z,69.86
2022-09-11T14:16:03.506Z,70.34
2022-09-11T14:18:37.162Z,70.24
2022-09-11T14:21:13.514Z,69.08
2022-09-11T14:23:50.565Z,67.65
2022-09-11T14:26:18.757Z,67.73
2022-09-11T14:29:01.036Z,65.96
2022-09-11T14:31:38.551Z,63.28
2022-09-11T14:34:20.759Z,63.55
2022-09-11T14:37:02.984Z,63.77
2022-09-11T14:39:36.478Z,64.62
2022-09-11T14:42:07.173Z,66.19
2022-09-11T14:44:35.643Z,67.52
2022-09-11T14:47:02.570Z,68.48
2022-09-11T14:49:29.728Z,69.15
2022-09-11T14:51:58.956Z,69.03
2022-09-11T14:54:31.249Z,69.30
2022-09-11T14:56:59.623Z,69.07
2022-09-11T14:59:29.215Z,69.87
2022-09-11T15:01:58.571Z,70.28
2022-09-11T15:04:25.528Z,70.91
2022-09-11T15:06:55.507Z,71.06
2022-09-11T15:09:23.638Z,71.21
2022-09-11T15:11:52.308Z,71.85
2022-09-11T15:14:38.022Z,72.55
2022-09-11T15:17:10.548Z,72.14
2022-09-11T15:19:38.188Z,73.18
2022-09-11T15:22:06.557Z,73.63
2022-09-11T15:24:33.700Z,73.60
2022-09-11T15:27:01.230Z,73.42
2022-09-11T15:29:31.482Z,74.75
2022-09-11T15:32:01.140Z,72.97
2022-09-11T15:34:31.744Z,73.54
2022-09-11T15:36:58.536Z,73.83
2022-09-11T15:39:25.709Z,72.49
2022-09-11T15:41:52.402Z,73.03
2022-09-11T15:44:27.466Z,71.67
2022-09-11T15:46:56.415Z,72.49
2022-09-11T15:49:24.321Z,72.13
2022-09-11T15:51:53.841Z,73.96
2022-09-11T15:54:23.268Z,74.58
2022-09-11T15:56:51.317Z,74.86
2022-09-11T15:59:18.023Z,76.68
2022-09-11T16:01:45.393Z,77.76
2022-09-11T16:04:15.501Z,76.48
2022-09-11T16:06:45.677Z,76.19
2022-09-11T16:09:15.857Z,77.07
2022-09-11T16:11:43.106Z,76.91
2022-09-11T16:14:37.344Z,78.54
2022-09-11T16:17:06.651Z,79.30
2022-09-11T16:19:34.801Z,79.55
2022-09-11T16:22:03.916Z,79.88
2022-09-11T16:24:35.556Z,80.93
2022-09-11T16:27:02.237Z,82.24
2022-09-11T16:29:44.074Z,82.01
2022-09-11T16:32:28.436Z,83.09
2022-09-11T16:34:57.296Z,84.00
2022-09-11T16:37:24.213Z,83.92
2022-09-11T16:39:51.101Z,84.53
2022-09-11T16:42:21.769Z,84.63
2022-09-11T16:44:49.750Z,84.37
2022-09-11T16:47:17.041Z,85.19
2022-09-11T16:50:06.512Z,85.65
2022-09-11T16:52:30.405Z,86.19
2022-09-11T16:54:57.030Z,86.14
2022-09-11T16:57:23.653Z,85.09
2022-09-11T16:59:51.011Z,84.56
2022-09-11T17:02:17.737Z,85.43
2022-09-11T17:04:44.436Z,85.49
2022-09-11T17:07:11.148Z,86.20
2022-09-11T17:09:37.873Z,87.00
2022-09-11T17:12:04.650Z,87.94
2022-09-11T17:14:31.321Z,87.74
2022-09-11T17:16:57.990Z,88.00
2022-09-11T17:19:24.688Z,88.09
2022-09-11T17:21:51.336Z,88.52
2022-09-11T17:24:21.636Z,89.21
2022-09-11T17:26:51.608Z,89.24
2022-09-11T17:29:19.558Z,89.56
2022-09-11T17:31:46.596Z,89.80
2022-09-11T17:34:14.718Z,89.59
2022-09-11T17:36:41.602Z,89.89
2022-09-11T17:39:08.885Z,90.50
2022-09-11T17:41:36.043Z,91.16
2022-09-11T17:44:02.877Z,91.33
2022-09-11T17:46:29.616Z,91.80
2022-09-11T17:48:56.353Z,92.41
2022-09-11T17:51:25.371Z,93.01
2022-09-11T17:53:57.323Z,93.48
2022-09-11T17:56:25.153Z,94.05
2022-09-11T17:58:55.966Z,93.63
2022-09-11T18:01:27.827Z,93.57
2022-09-11T18:03:55.487Z,94.21
2022-09-11T18:06:28.479Z,94.08
2022-09-11T18:08:57.746Z,93.90
2022-09-11T18:11:24.926Z,94.06
2022-09-11T18:13:51.628Z,93.74
2022-09-11T18:16:18.301Z,93.51
2022-09-11T18:18:45.033Z,93.63
2022-09-11T18:21:12.336Z,93.84
2022-09-11T18:23:41.039Z,93.97
2022-09-11T18:26:10.152Z,94.12
2022-09-11T18:28:37.614Z,94.39
2022-09-11T18:31:05.291Z,94.75
2022-09-11T18:33:32.942Z,95.31
2022-09-11T18:36:05.152Z,96.59
2022-09-11T18:38:33.173Z,97.40
2022-09-11T18:41:00.747Z,97.69
2022-09-11T18:43:28.654Z,98.11
2022-09-11T18:45:55.470Z,98.13
2022-09-11T18:48:22.187Z,99.01
2022-09-11T18:50:48.938Z,98.93
2022-09-11T18:53:17.303Z,99.68
2022-09-11T18:55:44.168Z,99.67
2022-09-11T18:58:10.989Z,99.84
2022-09-11T19:00:38.544Z,100.00
2022-09-11T19:03:05.291Z,100.00
2022-09-11T19:05:32.151Z,100.00
2022-09-11T19:08:01.220Z,100.00
2022-09-11T19:10:28.841Z,100.00
2022-09-11T19:12:55.566Z,100.00
2022-09-11T19:15:22.288Z,100.00
2022-09-11T19:17:49.505Z,100.00
2022-09-11T19:20:16.449Z,100.00
2022-09-11T19:22:44.301Z,100.00
2022-09-11T19:25:11.081Z,100.00
2022-09-11T19:27:38.217Z,100.00
2022-09-11T19:30:06.412Z,100.00
2022-09-11T19:32:33.578Z,100.00
2022-09-11T19:35:00.679Z,100.00
2022-09-11T19:37:28.385Z,100.00
2022-09-11T19:39:57.191Z,100.00
2022-09-11T19:42:23.992Z,100.00
2022-09-11T19:44:55.653Z,100.00
2022-09-11T19:47:24.964Z,100.00
2022-09-11T19:49:51.764Z,100.00
2022-09-11T19:52:18.510Z,100.00
2022-09-11T19:54:45.257Z,100.00
2022-09-11T19:57:11.868Z,100.00
2022-09-11T19:59:38.572Z,100.00
2022-09-11T20:02:05.460Z,100.00
2022-09-11T20:04:32.757Z,100.00
2022-09-11T20:07:00.419Z,100.00
2022-09-11T20:09:31.470Z,100.00
2022-09-11T20:12:00.455Z,100.00
2022-09-11T20:14:28.009Z,100.00
2022-09-11T20:16:54.714Z,100.00
2022-09-11T20:19:23.551Z,100.00
2022-09-11T20:21:50.502Z,100.00
2022-09-11T20:24:19.498Z,100.00
2022-09-11T20:26:46.306Z,100.00
2022-09-11T20:29:15.230Z,100.00
2022-09-11T20:31:49.760Z,100.00
2022-09-11T20:34:17.807Z,100.00
2022-09-11T20:36:45.651Z,100.00
2022-09-11T20:39:13.778Z,100.00
2022-09-11T20:41:40.993Z,100.00
2022-09-11T20:44:08.133Z,100.00
2022-09-11T20:46:35.107Z,100.00
2022-09-11T20:49:03.363Z,100.00
2022-09-11T20:51:30.856Z,100.00
2022-09-11T20:53:57.763Z,100.00
2022-09-11T20:56:24.544Z,100.00
2022-09-11T20:58:52.380Z,100.00
2022-09-11T21:01:22.180Z,100.00
2022-09-11T21:03:54.914Z,100.00
2022-09-11T21:06:26.089Z,100.00
2022-09-11T21:08:55.750Z,100.00
2022-09-11T21:11:24.747Z,100.00
2022-09-11T21:13:51.466Z,100.00
2022-09-11T21:16:20.028Z,100.00
2022-09-11T21:18:49.461Z,100.00
2022-09-11T21:21:16.901Z,100.00
2022-09-11T21:23:44.024Z,100.00
2022-09-11T21:26:13.596Z,100.00
2022-09-11T21:28:40.700Z,100.00
2022-09-11T21:31:07.669Z,100.00
2022-09-11T21:33:36.178Z,100.00
2022-09-11T21:36:03.986Z,100.00
2022-09-11T21:38:31.048Z,100.00
2022-09-11T21:41:00.000Z,100.00
2022-09-11T21:43:28.432Z,100.00
2022-09-11T21:45:55.100Z,100.00
2022-09-11T21:48:22.327Z,100.00
2022-09-11T21:50:49.055Z,100.00
2022-09-11T21:53:16.001Z,100.00
2022-09-11T21:55:45.126Z,100.00
2022-09-11T21:58:16.645Z,100.00
2022-09-11T22:00:43.908Z,100.00
2022-09-11T22:03:12.308Z,100.00
2022-09-11T22:05:44.304Z,100.00
2022-09-11T22:08:13.596Z,100.00
2022-09-11T22:10:45.234Z,100.00
2022-09-11T22:13:12.469Z,100.00
2022-09-11T22:15:44.622Z,100.00
2022-09-11T22:18:12.243Z,100.00
2022-09-11T22:20:40.667Z,100.00
2022-09-11T22:23:08.657Z,100.00
2022-09-11T22:25:36.939Z,100.00
2022-09-11T22:28:05.179Z,100.00
2022-09-11T22:30:32.450Z,100.00
2022-09-11T22:33:00.264Z,100.00
2022-09-11T22:35:28.713Z,100.00
2022-09-11T22:37:55.593Z,100.00
2022-09-11T22:40:22.590Z,100.00
2022-09-11T22:42:49.991Z,100.00
2022-09-11T22:45:17.711Z,100.00
2022-09-11T22:47:44.406Z,100.00
2022-09-11T22:50:11.050Z,100.00
2022-09-11T22:52:37.897Z,100.00
2022-09-11T22:55:06.101Z,100.00
2022-09-11T22:57:35.427Z,100.00
2022-09-11T23:00:05.094Z,100.00
2022-09-11T23:02:31.764Z,100.00
2022-09-11T23:05:17.069Z,100.00
2022-09-11T23:07:43.746Z,100.00
2022-09-11T23:10:10.533Z,100.00
2022-09-11T23:12:37.441Z,100.00
2022-09-11T23:15:04.517Z,100.00
2022-09-11T23:17:31.462Z,100.00
2022-09-11T23:19:58.092Z,100.00
2022-09-11T23:22:27.366Z,100.00
2022-09-11T23:24:54.329Z,100.00
2022-09-11T23:27:21.127Z,100.00
2022-09-11T23:29:47.822Z,100.00
2022-09-11T23:32:14.731Z,100.00
2022-09-11T23:34:41.377Z,100.00
2022-09-11T23:37:08.250Z,100.00
2022-09-11T23:39:35.013Z,100.00
2022-09-11T23:42:01.676Z,100.00
2022-09-11T23:44:28.329Z,100.00
2022-09-11T23:46:54.970Z,100.00
2022-09-11T23:49:21.625Z,100.00
2022-09-11T23:51:49.157Z,100.00
2022-09-11T23:54:16.019Z,100.00
2022-09-11T23:56:42.784Z,100.00
2022-09-11T23:59:09.569Z,100.00
